sensor_id;sensor_type;location;lat;lon;timestamp;temperature;humidity
4643;DHT22;2334;48.710;9.622;2023-03-01T00:01:55;-0.90;99.90
4643;DHT22;2334;48.710;9.622;2023-03-01T00:04:23;-1.00;99.90
4643;DHT22;2334;48.710;9.622;2023-03-01T00:06:50;-1.00;99.90
4643;DHT22;2334;48.710;9.622;2023-03-01T00:09:17;-1.00;99.90
4643;DHT22;2334;48.710;9.622;2023-03-01T00:11:44;-1.00;99.90
4643;DHT22;2334;48.710;9.622;2023-03-01T00:14:11;-1.00;99.90
4643;DHT22;2334;48.710;9.622;2023-03-01T00:16:39;-1.00;99.90
4643;DHT22;2334;48.710;9.622;2023-03-01T00:19:07;-1.00;99.90
4643;DHT22;2334;48.710;9.622;2023-03-01T00:21:36;-1.00;99.90
4643;DHT22;2334;48.710;9.622;2023-03-01T00:24:03;-1.10;99.90
4643;DHT22;2334;48.710;9.622;2023-03-01T00:26:30;-1.10;99.90
4643;DHT22;2334;48.710;9.622;2023-03-01T00:28:58;-1.10;99.90
4643;DHT22;2334;48.710;9.622;2023-03-01T00:31:27;-1.10;99.90
4643;DHT22;2334;48.710;9.622;2023-03-01T00:33:57;-1.10;99.90
4643;DHT22;2334;48.710;9.622;2023-03-01T00:36:25;-1.20;99.90
4643;DHT22;2334;48.710;9.622;2023-03-01T00:38:54;-1.20;99.90
4643;DHT22;2334;48.710;9.622;2023-03-01T00:41:22;-1.30;99.90
4643;DHT22;2334;48.710;9.622;2023-03-01T00:43:52;-1.30;99.90
4643;DHT22;2334;48.710;9.622;2023-03-01T00:46:21;-1.40;99.90
4643;DHT22;2334;48.710;9.622;2023-03-01T00:48:48;-1.40;99.90
4643;DHT22;2334;48.710;9.622;2023-03-01T00:51:16;-1.30;99.90
4643;DHT22;2334;48.710;9.622;2023-03-01T00:53:44;-1.30;99.90
4643;DHT22;2334;48.710;9.622;2023-03-01T00:56:14;-1.20;99.90
4643;DHT22;2334;48.710;9.622;2023-03-01T00:58:41;-1.20;99.90
4643;DHT22;2334;48.710;9.622;2023-03-01T01:01:09;-1.20;99.90
4643;DHT22;2334;48.710;9.622;2023-03-01T01:03:44;-1.20;99.90
4643;DHT22;2334;48.710;9.622;2023-03-01T01:06:15;-1.10;99.90
4643;DHT22;2334;48.710;9.622;2023-03-01T01:08:42;-1.10;99.90
4643;DHT22;2334;48.710;9.622;2023-03-01T01:11:09;-1.10;99.90
4643;DHT22;2334;48.710;9.622;2023-03-01T01:13:38;-1.10;99.90
4643;DHT22;2334;48.710;9.622;2023-03-01T01:16:06;-1.10;99.90
4643;DHT22;2334;48.710;9.622;2023-03-01T01:18:33;-1.00;99.90
4643;DHT22;2334;48.710;9.622;2023-03-01T01:21:05;-1.00;99.90
4643;DHT22;2334;48.710;9.622;2023-03-01T01:23:32;-1.00;99.90
4643;DHT22;2334;48.710;9.622;2023-03-01T01:26:03;-1.00;99.90
4643;DHT22;2334;48.710;9.622;2023-03-01T01:28:31;-0.90;99.90
4643;DHT22;2334;48.710;9.622;2023-03-01T01:30:59;-0.90;99.90
4643;DHT22;2334;48.710;9.622;2023-03-01T01:33:26;-0.90;99.90
4643;DHT22;2334;48.710;9.622;2023-03-01T01:35:53;-0.90;99.90
4643;DHT22;2334;48.710;9.622;2023-03-01T01:38:20;-0.90;99.90
4643;DHT22;2334;48.710;9.622;2023-03-01T01:40:48;-0.80;99.90
4643;DHT22;2334;48.710;9.622;2023-03-01T01:43:19;-0.80;99.90
4643;DHT22;2334;48.710;9.622;2023-03-01T01:45:46;-0.80;99.90
4643;DHT22;2334;48.710;9.622;2023-03-01T01:48:19;-0.80;99.90
4643;DHT22;2334;48.710;9.622;2023-03-01T01:50:51;-0.80;99.90
4643;DHT22;2334;48.710;9.622;2023-03-01T01:53:21;-0.70;99.90
4643;DHT22;2334;48.710;9.622;2023-03-01T01:55:52;-0.70;99.90
4643;DHT22;2334;48.710;9.622;2023-03-01T01:58:20;-0.70;99.90
4643;DHT22;2334;48.710;9.622;2023-03-01T02:00:48;-0.60;99.90
4643;DHT22;2334;48.710;9.622;2023-03-01T02:03:20;-0.60;99.90
4643;DHT22;2334;48.710;9.622;2023-03-01T02:05:52;-0.60;99.90
4643;DHT22;2334;48.710;9.622;2023-03-01T02:08:23;-0.60;99.90
4643;DHT22;2334;48.710;9.622;2023-03-01T02:10:50;-0.50;99.90
4643;DHT22;2334;48.710;9.622;2023-03-01T02:13:18;-0.50;99.90
4643;DHT22;2334;48.710;9.622;2023-03-01T02:15:45;-0.50;99.90
4643;DHT22;2334;48.710;9.622;2023-03-01T02:18:16;-0.40;99.90
4643;DHT22;2334;48.710;9.622;2023-03-01T02:20:56;-0.40;99.90
4643;DHT22;2334;48.710;9.622;2023-03-01T02:23:27;-0.40;99.90
4643;DHT22;2334;48.710;9.622;2023-03-01T02:25:59;-0.40;99.90
4643;DHT22;2334;48.710;9.622;2023-03-01T02:28:31;-0.40;99.90
4643;DHT22;2334;48.710;9.622;2023-03-01T02:30:59;-0.30;99.90
4643;DHT22;2334;48.710;9.622;2023-03-01T02:33:45;-0.30;99.90
4643;DHT22;2334;48.710;9.622;2023-03-01T02:36:17;-0.30;99.90
4643;DHT22;2334;48.710;9.622;2023-03-01T02:38:44;-0.30;99.90
4643;DHT22;2334;48.710;9.622;2023-03-01T02:41:13;-0.30;99.90
4643;DHT22;2334;48.710;9.622;2023-03-01T02:43:43;-0.20;99.90
4643;DHT22;2334;48.710;9.622;2023-03-01T02:46:15;-0.20;99.90
4643;DHT22;2334;48.710;9.622;2023-03-01T02:48:44;-0.20;99.90
4643;DHT22;2334;48.710;9.622;2023-03-01T02:51:26;-0.20;99.90
4643;DHT22;2334;48.710;9.622;2023-03-01T02:54:03;-0.20;99.90
4643;DHT22;2334;48.710;9.622;2023-03-01T02:56:32;-0.20;99.90
4643;DHT22;2334;48.710;9.622;2023-03-01T02:59:01;-0.20;99.90
4643;DHT22;2334;48.710;9.622;2023-03-01T03:01:29;-0.20;99.90
4643;DHT22;2334;48.710;9.622;2023-03-01T03:04:03;-0.20;99.90
4643;DHT22;2334;48.710;9.622;2023-03-01T03:06:30;-0.20;99.90
4643;DHT22;2334;48.710;9.622;2023-03-01T03:08:57;-0.20;99.90
4643;DHT22;2334;48.710;9.622;2023-03-01T03:11:24;-0.20;99.90
4643;DHT22;2334;48.710;9.622;2023-03-01T03:13:50;-0.20;99.90
4643;DHT22;2334;48.710;9.622;2023-03-01T03:16:19;-0.10;99.90
4643;DHT22;2334;48.710;9.622;2023-03-01T03:18:46;-0.10;99.90
4643;DHT22;2334;48.710;9.622;2023-03-01T03:21:13;-0.10;99.90
4643;DHT22;2334;48.710;9.622;2023-03-01T03:23:40;-0.10;99.90
4643;DHT22;2334;48.710;9.622;2023-03-01T03:26:07;-0.10;99.90
4643;DHT22;2334;48.710;9.622;2023-03-01T03:28:35;-0.10;99.90
4643;DHT22;2334;48.710;9.622;2023-03-01T03:31:06;-0.10;99.90
4643;DHT22;2334;48.710;9.622;2023-03-01T03:33:34;-0.10;99.90
4643;DHT22;2334;48.710;9.622;2023-03-01T03:36:01;-0.10;99.90
4643;DHT22;2334;48.710;9.622;2023-03-01T03:38:27;-0.10;99.90
4643;DHT22;2334;48.710;9.622;2023-03-01T03:41:00;-0.10;99.90
4643;DHT22;2334;48.710;9.622;2023-03-01T03:43:28;0.00;99.90
4643;DHT22;2334;48.710;9.622;2023-03-01T03:45:55;-0.10;99.90
4643;DHT22;2334;48.710;9.622;2023-03-01T03:48:24;-0.10;99.90
4643;DHT22;2334;48.710;9.622;2023-03-01T03:50:54;0.00;99.90
4643;DHT22;2334;48.710;9.622;2023-03-01T03:53:22;0.00;99.90
4643;DHT22;2334;48.710;9.622;2023-03-01T03:55:50;0.00;99.90
4643;DHT22;2334;48.710;9.622;2023-03-01T03:58:21;0.00;99.90
4643;DHT22;2334;48.710;9.622;2023-03-01T04:00:50;-0.10;99.90
4643;DHT22;2334;48.710;9.622;2023-03-01T04:03:18;-0.10;99.90
4643;DHT22;2334;48.710;9.622;2023-03-01T04:05:46;-0.10;99.90
4643;DHT22;2334;48.710;9.622;2023-03-01T04:08:14;-0.10;99.90
4643;DHT22;2334;48.710;9.622;2023-03-01T04:10:43;-0.10;99.90
4643;DHT22;2334;48.710;9.622;2023-03-01T04:13:12;-0.10;99.90
4643;DHT22;2334;48.710;9.622;2023-03-01T04:15:39;-0.10;99.90
4643;DHT22;2334;48.710;9.622;2023-03-01T04:18:07;-0.10;99.90
4643;DHT22;2334;48.710;9.622;2023-03-01T04:20:35;-0.10;99.90
4643;DHT22;2334;48.710;9.622;2023-03-01T04:23:04;-0.10;99.90
4643;DHT22;2334;48.710;9.622;2023-03-01T04:25:38;-0.10;99.90
4643;DHT22;2334;48.710;9.622;2023-03-01T04:28:05;-0.10;99.90
4643;DHT22;2334;48.710;9.622;2023-03-01T04:30:33;-0.10;99.90
4643;DHT22;2334;48.710;9.622;2023-03-01T04:33:03;-0.10;99.90
4643;DHT22;2334;48.710;9.622;2023-03-01T04:35:31;-0.10;99.90
4643;DHT22;2334;48.710;9.622;2023-03-01T04:37:58;-0.10;99.90
4643;DHT22;2334;48.710;9.622;2023-03-01T04:40:26;-0.10;99.90
4643;DHT22;2334;48.710;9.622;2023-03-01T04:42:54;0.00;99.90
4643;DHT22;2334;48.710;9.622;2023-03-01T04:45:21;0.00;99.90
4643;DHT22;2334;48.710;9.622;2023-03-01T04:47:48;0.00;99.90
4643;DHT22;2334;48.710;9.622;2023-03-01T04:50:18;0.00;99.90
4643;DHT22;2334;48.710;9.622;2023-03-01T04:52:47;0.00;99.90
4643;DHT22;2334;48.710;9.622;2023-03-01T04:55:14;0.00;99.90
4643;DHT22;2334;48.710;9.622;2023-03-01T04:57:41;-0.10;99.90
4643;DHT22;2334;48.710;9.622;2023-03-01T05:00:12;0.00;99.90
4643;DHT22;2334;48.710;9.622;2023-03-01T05:02:48;0.00;99.90
4643;DHT22;2334;48.710;9.622;2023-03-01T05:05:23;0.00;99.90
4643;DHT22;2334;48.710;9.622;2023-03-01T05:07:54;0.00;99.90
4643;DHT22;2334;48.710;9.622;2023-03-01T05:10:22;0.00;99.90
4643;DHT22;2334;48.710;9.622;2023-03-01T05:12:49;0.00;99.90
4643;DHT22;2334;48.710;9.622;2023-03-01T05:15:19;0.00;99.90
4643;DHT22;2334;48.710;9.622;2023-03-01T05:17:47;0.00;99.90
4643;DHT22;2334;48.710;9.622;2023-03-01T05:20:14;0.00;99.90
4643;DHT22;2334;48.710;9.622;2023-03-01T05:22:41;0.00;99.90
4643;DHT22;2334;48.710;9.622;2023-03-01T05:25:08;0.00;99.90
4643;DHT22;2334;48.710;9.622;2023-03-01T05:27:36;0.00;99.90
4643;DHT22;2334;48.710;9.622;2023-03-01T05:30:03;0.00;99.90
4643;DHT22;2334;48.710;9.622;2023-03-01T05:32:41;0.10;99.90
4643;DHT22;2334;48.710;9.622;2023-03-01T05:35:10;0.10;99.90
4643;DHT22;2334;48.710;9.622;2023-03-01T05:37:39;0.10;99.90
4643;DHT22;2334;48.710;9.622;2023-03-01T05:40:08;0.10;99.90
4643;DHT22;2334;48.710;9.622;2023-03-01T05:42:42;0.10;99.90
4643;DHT22;2334;48.710;9.622;2023-03-01T05:45:10;0.10;99.90
4643;DHT22;2334;48.710;9.622;2023-03-01T05:47:38;0.00;99.90
4643;DHT22;2334;48.710;9.622;2023-03-01T05:50:11;0.00;99.90
4643;DHT22;2334;48.710;9.622;2023-03-01T05:52:39;0.00;99.90
4643;DHT22;2334;48.710;9.622;2023-03-01T05:55:06;-0.10;99.90
4643;DHT22;2334;48.710;9.622;2023-03-01T05:57:33;-0.10;99.90
4643;DHT22;2334;48.710;9.622;2023-03-01T06:00:00;-0.10;99.90
4643;DHT22;2334;48.710;9.622;2023-03-01T06:02:27;-0.10;99.90
4643;DHT22;2334;48.710;9.622;2023-03-01T06:04:54;-0.10;99.90
4643;DHT22;2334;48.710;9.622;2023-03-01T06:07:23;-0.10;99.90
4643;DHT22;2334;48.710;9.622;2023-03-01T06:09:50;-0.10;99.90
4643;DHT22;2334;48.710;9.622;2023-03-01T06:12:16;-0.10;99.90
4643;DHT22;2334;48.710;9.622;2023-03-01T06:14:45;-0.10;99.90
4643;DHT22;2334;48.710;9.622;2023-03-01T06:17:13;-0.20;99.90
4643;DHT22;2334;48.710;9.622;2023-03-01T06:19:40;-0.20;99.90
4643;DHT22;2334;48.710;9.622;2023-03-01T06:22:07;-0.20;99.90
4643;DHT22;2334;48.710;9.622;2023-03-01T06:24:35;-0.20;99.90
4643;DHT22;2334;48.710;9.622;2023-03-01T06:27:02;-0.30;99.90
4643;DHT22;2334;48.710;9.622;2023-03-01T06:29:29;-0.30;99.90
4643;DHT22;2334;48.710;9.622;2023-03-01T06:31:56;-0.30;99.90
4643;DHT22;2334;48.710;9.622;2023-03-01T06:34:23;-0.30;99.90
4643;DHT22;2334;48.710;9.622;2023-03-01T06:36:50;-0.30;99.90
4643;DHT22;2334;48.710;9.622;2023-03-01T06:39:17;-0.30;99.90
4643;DHT22;2334;48.710;9.622;2023-03-01T06:41:45;-0.20;99.90
4643;DHT22;2334;48.710;9.622;2023-03-01T06:44:12;-0.30;99.90
4643;DHT22;2334;48.710;9.622;2023-03-01T06:46:39;-0.30;99.90
4643;DHT22;2334;48.710;9.622;2023-03-01T06:49:06;-0.30;99.90
4643;DHT22;2334;48.710;9.622;2023-03-01T06:51:35;-0.20;99.90
4643;DHT22;2334;48.710;9.622;2023-03-01T06:54:03;-0.20;99.90
4643;DHT22;2334;48.710;9.622;2023-03-01T06:56:30;-0.20;99.90
4643;DHT22;2334;48.710;9.622;2023-03-01T06:58:59;-0.20;99.90
4643;DHT22;2334;48.710;9.622;2023-03-01T07:01:25;-0.10;99.90
4643;DHT22;2334;48.710;9.622;2023-03-01T07:03:52;-0.10;99.90
4643;DHT22;2334;48.710;9.622;2023-03-01T07:06:19;-0.10;99.90
4643;DHT22;2334;48.710;9.622;2023-03-01T07:08:46;0.00;99.90
4643;DHT22;2334;48.710;9.622;2023-03-01T07:11:13;0.00;99.90
4643;DHT22;2334;48.710;9.622;2023-03-01T07:13:40;0.10;99.90
4643;DHT22;2334;48.710;9.622;2023-03-01T07:16:09;0.10;99.90
4643;DHT22;2334;48.710;9.622;2023-03-01T07:18:36;0.10;99.90
4643;DHT22;2334;48.710;9.622;2023-03-01T07:21:06;0.20;99.90
4643;DHT22;2334;48.710;9.622;2023-03-01T07:23:33;0.20;99.90
4643;DHT22;2334;48.710;9.622;2023-03-01T07:26:00;0.30;99.90
4643;DHT22;2334;48.710;9.622;2023-03-01T07:28:27;0.30;99.90
4643;DHT22;2334;48.710;9.622;2023-03-01T07:30:54;0.40;99.90
4643;DHT22;2334;48.710;9.622;2023-03-01T07:33:23;0.40;99.90
4643;DHT22;2334;48.710;9.622;2023-03-01T07:35:56;0.40;99.90
4643;DHT22;2334;48.710;9.622;2023-03-01T07:38:23;0.50;99.90
4643;DHT22;2334;48.710;9.622;2023-03-01T07:40:50;0.60;99.90
4643;DHT22;2334;48.710;9.622;2023-03-01T07:43:17;0.60;99.90
4643;DHT22;2334;48.710;9.622;2023-03-01T07:45:44;0.60;99.90
4643;DHT22;2334;48.710;9.622;2023-03-01T07:48:11;0.60;99.90
4643;DHT22;2334;48.710;9.622;2023-03-01T07:50:39;0.70;99.90
4643;DHT22;2334;48.710;9.622;2023-03-01T07:53:06;0.70;99.90
4643;DHT22;2334;48.710;9.622;2023-03-01T07:55:33;0.80;99.90
4643;DHT22;2334;48.710;9.622;2023-03-01T07:58:00;0.90;99.90
4643;DHT22;2334;48.710;9.622;2023-03-01T08:00:27;1.00;99.90
4643;DHT22;2334;48.710;9.622;2023-03-01T08:02:54;1.10;99.90
4643;DHT22;2334;48.710;9.622;2023-03-01T08:05:21;1.20;99.90
4643;DHT22;2334;48.710;9.622;2023-03-01T08:07:49;1.30;99.90
4643;DHT22;2334;48.710;9.622;2023-03-01T08:10:17;1.30;99.90
4643;DHT22;2334;48.710;9.622;2023-03-01T08:12:43;1.40;99.90
4643;DHT22;2334;48.710;9.622;2023-03-01T08:15:11;1.50;99.90
4643;DHT22;2334;48.710;9.622;2023-03-01T08:17:38;1.50;99.90
4643;DHT22;2334;48.710;9.622;2023-03-01T08:20:05;1.60;99.90
4643;DHT22;2334;48.710;9.622;2023-03-01T08:22:33;1.70;99.90
4643;DHT22;2334;48.710;9.622;2023-03-01T08:25:01;1.80;99.90
4643;DHT22;2334;48.710;9.622;2023-03-01T08:27:28;2.00;99.90
4643;DHT22;2334;48.710;9.622;2023-03-01T08:29:55;2.10;99.90
4643;DHT22;2334;48.710;9.622;2023-03-01T08:32:22;2.20;99.90
4643;DHT22;2334;48.710;9.622;2023-03-01T08:34:48;2.40;99.90
4643;DHT22;2334;48.710;9.622;2023-03-01T08:37:15;2.50;99.90
4643;DHT22;2334;48.710;9.622;2023-03-01T08:39:42;2.60;99.90
4643;DHT22;2334;48.710;9.622;2023-03-01T08:42:10;2.70;99.90
4643;DHT22;2334;48.710;9.622;2023-03-01T08:44:40;2.80;99.90
4643;DHT22;2334;48.710;9.622;2023-03-01T08:47:06;3.00;99.90
4643;DHT22;2334;48.710;9.622;2023-03-01T08:49:34;3.00;99.90
4643;DHT22;2334;48.710;9.622;2023-03-01T08:52:02;3.20;99.90
4643;DHT22;2334;48.710;9.622;2023-03-01T08:54:29;3.20;99.90
4643;DHT22;2334;48.710;9.622;2023-03-01T08:56:56;3.30;99.90
4643;DHT22;2334;48.710;9.622;2023-03-01T08:59:26;3.50;99.90
4643;DHT22;2334;48.710;9.622;2023-03-01T09:01:55;3.60;99.90
4643;DHT22;2334;48.710;9.622;2023-03-01T09:04:22;3.70;99.90
4643;DHT22;2334;48.710;9.622;2023-03-01T09:06:49;3.70;99.90
4643;DHT22;2334;48.710;9.622;2023-03-01T09:09:17;3.70;99.90
4643;DHT22;2334;48.710;9.622;2023-03-01T09:11:44;3.70;99.90
4643;DHT22;2334;48.710;9.622;2023-03-01T09:14:12;3.80;99.90
4643;DHT22;2334;48.710;9.622;2023-03-01T09:16:40;3.80;99.90
4643;DHT22;2334;48.710;9.622;2023-03-01T09:19:07;4.00;99.90
4643;DHT22;2334;48.710;9.622;2023-03-01T09:21:34;4.10;99.90
4643;DHT22;2334;48.710;9.622;2023-03-01T09:24:01;4.20;99.90
4643;DHT22;2334;48.710;9.622;2023-03-01T09:26:28;4.20;99.90
4643;DHT22;2334;48.710;9.622;2023-03-01T09:28:56;4.20;99.90
4643;DHT22;2334;48.710;9.622;2023-03-01T09:31:24;4.20;99.90
4643;DHT22;2334;48.710;9.622;2023-03-01T09:33:53;4.50;99.90
4643;DHT22;2334;48.710;9.622;2023-03-01T09:36:22;4.60;99.90
4643;DHT22;2334;48.710;9.622;2023-03-01T09:38:50;4.90;99.90
4643;DHT22;2334;48.710;9.622;2023-03-01T09:41:46;5.00;99.90
4643;DHT22;2334;48.710;9.622;2023-03-01T09:44:23;5.10;99.90
4643;DHT22;2334;48.710;9.622;2023-03-01T09:46:53;5.30;99.90
4643;DHT22;2334;48.710;9.622;2023-03-01T09:49:26;5.40;99.90
4643;DHT22;2334;48.710;9.622;2023-03-01T09:51:59;5.40;99.90
4643;DHT22;2334;48.710;9.622;2023-03-01T09:54:27;5.40;99.90
4643;DHT22;2334;48.710;9.622;2023-03-01T09:57:16;5.60;99.90
4643;DHT22;2334;48.710;9.622;2023-03-01T09:59:54;5.40;99.90
4643;DHT22;2334;48.710;9.622;2023-03-01T10:02:27;5.70;99.90
4643;DHT22;2334;48.710;9.622;2023-03-01T10:05:09;5.70;99.90
4643;DHT22;2334;48.710;9.622;2023-03-01T10:07:43;5.90;99.90
4643;DHT22;2334;48.710;9.622;2023-03-01T10:10:21;5.90;99.90
4643;DHT22;2334;48.710;9.622;2023-03-01T10:12:50;5.90;99.90
4643;DHT22;2334;48.710;9.622;2023-03-01T10:15:24;6.00;99.90
4643;DHT22;2334;48.710;9.622;2023-03-01T10:17:55;6.20;99.90
4643;DHT22;2334;48.710;9.622;2023-03-01T10:20:25;5.90;99.90
4643;DHT22;2334;48.710;9.622;2023-03-01T10:22:53;6.00;99.90
4643;DHT22;2334;48.710;9.622;2023-03-01T10:25:32;6.10;99.90
4643;DHT22;2334;48.710;9.622;2023-03-01T10:28:05;6.20;99.90
4643;DHT22;2334;48.710;9.622;2023-03-01T10:30:36;6.40;99.90
4643;DHT22;2334;48.710;9.622;2023-03-01T10:33:10;6.50;99.90
4643;DHT22;2334;48.710;9.622;2023-03-01T10:35:41;6.80;99.90
4643;DHT22;2334;48.710;9.622;2023-03-01T10:38:10;7.00;99.90
4643;DHT22;2334;48.710;9.622;2023-03-01T10:40:51;7.20;99.90
4643;DHT22;2334;48.710;9.622;2023-03-01T10:43:19;7.00;99.90
4643;DHT22;2334;48.710;9.622;2023-03-01T10:45:46;6.80;99.90
4643;DHT22;2334;48.710;9.622;2023-03-01T10:48:15;7.20;99.90
4643;DHT22;2334;48.710;9.622;2023-03-01T10:50:45;7.30;99.90
4643;DHT22;2334;48.710;9.622;2023-03-01T10:53:25;7.30;99.90
4643;DHT22;2334;48.710;9.622;2023-03-01T10:55:59;7.00;99.90
4643;DHT22;2334;48.710;9.622;2023-03-01T10:58:27;7.10;99.90
4643;DHT22;2334;48.710;9.622;2023-03-01T11:00:56;7.60;99.90
4643;DHT22;2334;48.710;9.622;2023-03-01T11:03:24;7.80;99.90
4643;DHT22;2334;48.710;9.622;2023-03-01T11:05:59;7.70;99.90
4643;DHT22;2334;48.710;9.622;2023-03-01T11:08:38;7.90;99.90
4643;DHT22;2334;48.710;9.622;2023-03-01T11:11:13;7.90;99.90
4643;DHT22;2334;48.710;9.622;2023-03-01T11:13:50;8.00;99.90
4643;DHT22;2334;48.710;9.622;2023-03-01T11:16:27;8.10;99.90
4643;DHT22;2334;48.710;9.622;2023-03-01T11:19:19;8.10;99.90
4643;DHT22;2334;48.710;9.622;2023-03-01T11:21:58;8.20;99.90
4643;DHT22;2334;48.710;9.622;2023-03-01T11:24:31;8.00;99.90
4643;DHT22;2334;48.710;9.622;2023-03-01T11:27:03;8.10;99.90
4643;DHT22;2334;48.710;9.622;2023-03-01T11:29:35;8.20;99.90
4643;DHT22;2334;48.710;9.622;2023-03-01T11:32:08;8.00;99.90
4643;DHT22;2334;48.710;9.622;2023-03-01T11:34:42;8.20;99.90
4643;DHT22;2334;48.710;9.622;2023-03-01T11:37:22;8.60;99.90
4643;DHT22;2334;48.710;9.622;2023-03-01T11:39:58;8.50;99.90
4643;DHT22;2334;48.710;9.622;2023-03-01T11:42:35;8.70;99.90
4643;DHT22;2334;48.710;9.622;2023-03-01T11:45:09;9.10;99.90
4643;DHT22;2334;48.710;9.622;2023-03-01T11:48:04;9.10;99.90
4643;DHT22;2334;48.710;9.622;2023-03-01T11:50:38;9.00;99.90
4643;DHT22;2334;48.710;9.622;2023-03-01T11:53:32;9.20;99.90
4643;DHT22;2334;48.710;9.622;2023-03-01T11:56:13;9.40;99.90
4643;DHT22;2334;48.710;9.622;2023-03-01T11:58:57;9.30;99.90
4643;DHT22;2334;48.710;9.622;2023-03-01T12:01:37;9.40;99.90
4643;DHT22;2334;48.710;9.622;2023-03-01T12:04:26;9.30;99.90
4643;DHT22;2334;48.710;9.622;2023-03-01T12:06:57;9.10;99.90
4643;DHT22;2334;48.710;9.622;2023-03-01T12:09:36;9.30;99.90
4643;DHT22;2334;48.710;9.622;2023-03-01T12:12:17;9.40;99.90
4643;DHT22;2334;48.710;9.622;2023-03-01T12:14:57;9.40;99.90
4643;DHT22;2334;48.710;9.622;2023-03-01T12:17:56;9.20;99.90
4643;DHT22;2334;48.710;9.622;2023-03-01T12:20:29;9.50;99.90
4643;DHT22;2334;48.710;9.622;2023-03-01T12:23:24;9.70;99.90
4643;DHT22;2334;48.710;9.622;2023-03-01T12:26:01;9.60;99.90
4643;DHT22;2334;48.710;9.622;2023-03-01T12:29:07;9.40;99.90
4643;DHT22;2334;48.710;9.622;2023-03-01T12:31:53;9.30;99.90
4643;DHT22;2334;48.710;9.622;2023-03-01T12:34:46;9.30;99.90
4643;DHT22;2334;48.710;9.622;2023-03-01T12:37:25;9.50;99.90
4643;DHT22;2334;48.710;9.622;2023-03-01T12:40:15;9.60;99.90
4643;DHT22;2334;48.710;9.622;2023-03-01T12:42:54;9.80;99.90
4643;DHT22;2334;48.710;9.622;2023-03-01T12:45:40;9.70;99.90
4643;DHT22;2334;48.710;9.622;2023-03-01T12:48:31;9.50;99.90
4643;DHT22;2334;48.710;9.622;2023-03-01T12:51:06;9.40;99.90
4643;DHT22;2334;48.710;9.622;2023-03-01T12:53:37;9.10;99.90
4643;DHT22;2334;48.710;9.622;2023-03-01T12:56:08;8.90;99.90
4643;DHT22;2334;48.710;9.622;2023-03-01T12:58:41;8.90;99.90
4643;DHT22;2334;48.710;9.622;2023-03-01T13:01:31;8.70;99.90
4643;DHT22;2334;48.710;9.622;2023-03-01T13:04:16;8.80;99.90
4643;DHT22;2334;48.710;9.622;2023-03-01T13:06:55;8.90;99.90
4643;DHT22;2334;48.710;9.622;2023-03-01T13:09:29;9.10;99.90
4643;DHT22;2334;48.710;9.622;2023-03-01T13:11:57;9.00;99.90
4643;DHT22;2334;48.710;9.622;2023-03-01T13:14:45;9.10;99.90
4643;DHT22;2334;48.710;9.622;2023-03-01T13:17:39;8.90;99.90
4643;DHT22;2334;48.710;9.622;2023-03-01T13:20:15;8.80;99.90
4643;DHT22;2334;48.710;9.622;2023-03-01T13:22:45;8.60;99.90
4643;DHT22;2334;48.710;9.622;2023-03-01T13:25:15;8.50;99.90
4643;DHT22;2334;48.710;9.622;2023-03-01T13:27:43;8.50;99.90
4643;DHT22;2334;48.710;9.622;2023-03-01T13:30:41;8.70;99.90
4643;DHT22;2334;48.710;9.622;2023-03-01T13:33:39;8.70;99.90
4643;DHT22;2334;48.710;9.622;2023-03-01T13:36:08;8.90;99.90
4643;DHT22;2334;48.710;9.622;2023-03-01T13:38:38;8.90;99.90
4643;DHT22;2334;48.710;9.622;2023-03-01T13:41:07;8.80;99.90
4643;DHT22;2334;48.710;9.622;2023-03-01T13:43:35;8.70;99.90
4643;DHT22;2334;48.710;9.622;2023-03-01T13:46:10;8.80;99.90
4643;DHT22;2334;48.710;9.622;2023-03-01T13:48:39;8.90;99.90
4643;DHT22;2334;48.710;9.622;2023-03-01T13:51:09;8.80;99.90
4643;DHT22;2334;48.710;9.622;2023-03-01T13:53:42;8.80;99.90
4643;DHT22;2334;48.710;9.622;2023-03-01T13:56:12;8.70;99.90
4643;DHT22;2334;48.710;9.622;2023-03-01T13:58:51;8.70;99.90
4643;DHT22;2334;48.710;9.622;2023-03-01T14:01:27;8.70;99.90
4643;DHT22;2334;48.710;9.622;2023-03-01T14:03:55;8.80;99.90
4643;DHT22;2334;48.710;9.622;2023-03-01T14:06:25;8.80;99.90
4643;DHT22;2334;48.710;9.622;2023-03-01T14:09:06;8.80;99.90
4643;DHT22;2334;48.710;9.622;2023-03-01T14:12:07;8.80;99.90
4643;DHT22;2334;48.710;9.622;2023-03-01T14:14:53;8.70;99.90
4643;DHT22;2334;48.710;9.622;2023-03-01T14:20:29;8.50;99.90
4643;DHT22;2334;48.710;9.622;2023-03-01T14:22:59;8.50;99.90
4643;DHT22;2334;48.710;9.622;2023-03-01T14:25:28;8.60;99.90
4643;DHT22;2334;48.710;9.622;2023-03-01T14:27:59;8.70;99.90
4643;DHT22;2334;48.710;9.622;2023-03-01T14:30:30;8.60;99.90
4643;DHT22;2334;48.710;9.622;2023-03-01T14:33:00;8.60;99.90
4643;DHT22;2334;48.710;9.622;2023-03-01T14:35:31;8.50;99.90
4643;DHT22;2334;48.710;9.622;2023-03-01T14:37:58;8.50;99.90
4643;DHT22;2334;48.710;9.622;2023-03-01T14:40:27;8.40;99.90
4643;DHT22;2334;48.710;9.622;2023-03-01T14:42:56;8.50;99.90
4643;DHT22;2334;48.710;9.622;2023-03-01T14:45:26;8.50;99.90
4643;DHT22;2334;48.710;9.622;2023-03-01T14:47:53;8.40;99.90
4643;DHT22;2334;48.710;9.622;2023-03-01T14:50:28;8.50;99.90
4643;DHT22;2334;48.710;9.622;2023-03-01T14:52:58;8.50;99.90
4643;DHT22;2334;48.710;9.622;2023-03-01T14:55:31;8.60;99.90
4643;DHT22;2334;48.710;9.622;2023-03-01T14:58:03;8.60;99.90
4643;DHT22;2334;48.710;9.622;2023-03-01T15:00:31;8.60;99.90
4643;DHT22;2334;48.710;9.622;2023-03-01T15:03:04;8.40;99.90
4643;DHT22;2334;48.710;9.622;2023-03-01T15:05:41;8.40;99.90
4643;DHT22;2334;48.710;9.622;2023-03-01T15:08:16;8.40;99.90
4643;DHT22;2334;48.710;9.622;2023-03-01T15:10:56;8.30;99.90
4643;DHT22;2334;48.710;9.622;2023-03-01T15:13:25;8.30;99.90
4643;DHT22;2334;48.710;9.622;2023-03-01T15:15:53;8.30;99.90
4643;DHT22;2334;48.710;9.622;2023-03-01T15:18:28;8.20;99.90
4643;DHT22;2334;48.710;9.622;2023-03-01T15:21:06;8.20;99.90
4643;DHT22;2334;48.710;9.622;2023-03-01T15:23:34;8.20;99.90
4643;DHT22;2334;48.710;9.622;2023-03-01T15:26:03;8.10;99.90
4643;DHT22;2334;48.710;9.622;2023-03-01T15:28:32;8.10;99.90
4643;DHT22;2334;48.710;9.622;2023-03-01T15:31:03;8.00;99.90
4643;DHT22;2334;48.710;9.622;2023-03-01T15:33:37;8.00;99.90
4643;DHT22;2334;48.710;9.622;2023-03-01T15:36:31;8.00;99.90
4643;DHT22;2334;48.710;9.622;2023-03-01T15:39:00;8.00;99.90
4643;DHT22;2334;48.710;9.622;2023-03-01T15:41:29;7.90;99.90
4643;DHT22;2334;48.710;9.622;2023-03-01T15:43:58;7.90;99.90
4643;DHT22;2334;48.710;9.622;2023-03-01T15:46:29;7.90;99.90
4643;DHT22;2334;48.710;9.622;2023-03-01T15:48:59;7.90;99.90
4643;DHT22;2334;48.710;9.622;2023-03-01T15:51:37;7.90;99.90
4643;DHT22;2334;48.710;9.622;2023-03-01T15:54:07;7.80;99.90
4643;DHT22;2334;48.710;9.622;2023-03-01T15:56:39;7.90;99.90
4643;DHT22;2334;48.710;9.622;2023-03-01T15:59:09;7.80;99.90
4643;DHT22;2334;48.710;9.622;2023-03-01T16:01:38;7.80;99.90
4643;DHT22;2334;48.710;9.622;2023-03-01T16:04:05;7.70;99.90
4643;DHT22;2334;48.710;9.622;2023-03-01T16:06:34;7.70;99.90
4643;DHT22;2334;48.710;9.622;2023-03-01T16:09:01;7.60;99.90
4643;DHT22;2334;48.710;9.622;2023-03-01T16:11:28;7.60;99.90
4643;DHT22;2334;48.710;9.622;2023-03-01T16:13:56;7.50;99.90
4643;DHT22;2334;48.710;9.622;2023-03-01T16:16:23;7.50;99.90
4643;DHT22;2334;48.710;9.622;2023-03-01T16:18:50;7.40;99.90
4643;DHT22;2334;48.710;9.622;2023-03-01T16:21:20;7.40;99.90
4643;DHT22;2334;48.710;9.622;2023-03-01T16:23:49;7.40;99.90
4643;DHT22;2334;48.710;9.622;2023-03-01T16:26:16;7.30;99.90
4643;DHT22;2334;48.710;9.622;2023-03-01T16:28:45;7.30;99.90
4643;DHT22;2334;48.710;9.622;2023-03-01T16:31:16;7.20;99.90
4643;DHT22;2334;48.710;9.622;2023-03-01T16:33:43;7.20;99.90
4643;DHT22;2334;48.710;9.622;2023-03-01T16:36:16;7.20;99.90
4643;DHT22;2334;48.710;9.622;2023-03-01T16:38:43;7.10;99.90
4643;DHT22;2334;48.710;9.622;2023-03-01T16:41:15;7.10;99.90